Time;durP1;ratioP1;P1;durP2;ratioP2;P2;SDS_P1;SDS_P2;PMS_P1;PMS_P2;Temp;Humidity;BMP_temperature;BMP_pressure;BME280_temperature;BME280_humidity;BME280_pressure;Samples;Min_cycle;Max_cycle;Signal;HPM_P1;HPM_P2
2022/06/25 00:03:26;;;;;;;6.50;5.60;;;21.30;95.90;;;;;;10504520;28;20482;-58
2022/06/25 00:08:26;;;;;;;6.80;5.13;;;21.30;95.90;;;;;;10508959;28;20020;-57
2022/06/25 00:13:27;;;;;;;5.45;4.60;;;21.30;95.90;;;;;;10508327;28;20103;-56
2022/06/25 00:18:28;;;;;;;6.32;5.30;;;21.30;95.90;;;;;;10509200;28;20041;-56
2022/06/25 00:23:29;;;;;;;7.57;5.07;;;21.30;95.80;;;;;;10509261;28;20131;-56
2022/06/25 00:28:29;;;;;;;7.13;4.90;;;21.30;95.80;;;;;;10500680;28;20479;-60
2022/06/25 00:33:30;;;;;;;6.30;4.90;;;21.20;95.80;;;;;;10511704;28;20480;-57
2022/06/25 00:38:31;;;;;;;6.00;4.50;;;21.20;95.80;;;;;;10498904;28;20492;-56
2022/06/25 00:43:36;;;;;;;6.03;4.68;;;21.20;95.80;;;;;;10502892;28;20431;-57
2022/06/25 00:48:37;;;;;;;6.75;4.35;;;21.20;95.70;;;;;;10502159;28;20029;-57
2022/06/25 00:53:41;;;;;;;5.35;4.53;;;21.20;95.70;;;;;;10501732;28;20541;-58
2022/06/25 00:58:44;;;;;;;5.22;4.10;;;21.10;95.70;;;;;;10509824;28;20028;-60
2022/06/25 01:03:44;;;;;;;5.85;4.60;;;21.10;95.70;;;;;;10505798;28;20036;-60
2022/06/25 01:08:45;;;;;;;5.35;4.53;;;21.10;95.70;;;;;;10512070;28;20017;-58
2022/06/25 01:13:45;;;;;;;4.28;3.88;;;21.10;95.60;;;;;;10507556;28;20015;-57
2022/06/25 01:18:47;;;;;;;4.43;3.90;;;21.00;95.60;;;;;;10505423;28;20039;-58
2022/06/25 01:23:48;;;;;;;6.72;4.28;;;21.00;95.60;;;;;;10500279;28;20035;-57
2022/06/25 01:28:48;;;;;;;5.45;4.10;;;21.00;95.60;;;;;;10510944;28;20496;-60
2022/06/25 01:33:49;;;;;;;4.68;4.22;;;21.00;95.60;;;;;;10506894;28;20020;-57
2022/06/25 01:38:50;;;;;;;5.03;4.25;;;21.00;95.80;;;;;;10507238;28;20021;-56
2022/06/25 01:43:51;;;;;;;7.10;4.10;;;21.00;95.50;;;;;;10509335;28;20029;-57
2022/06/25 01:48:52;;;;;;;3.67;3.38;;;20.90;95.50;;;;;;10506380;28;20047;-57
2022/06/25 01:53:53;;;;;;;4.53;4.03;;;20.90;95.70;;;;;;10503307;28;20072;-56
2022/06/25 01:58:54;;;;;;;5.35;3.72;;;20.90;95.50;;;;;;10505065;28;20032;-59
2022/06/25 02:03:54;;;;;;;4.00;3.60;;;20.90;95.50;;;;;;10500210;28;20039;-56
2022/06/25 02:08:55;;;;;;;4.82;3.38;;;20.90;95.40;;;;;;10498687;28;20069;-57
2022/06/25 02:13:55;;;;;;;4.07;3.67;;;20.80;95.40;;;;;;10509239;28;20483;-58
2022/06/25 02:18:56;;;;;;;3.47;3.17;;;20.80;95.40;;;;;;10505691;28;20044;-56
2022/06/25 02:23:57;;;;;;;3.97;3.05;;;20.80;95.40;;;;;;10501312;28;20044;-58
2022/06/25 02:28:58;;;;;;;4.07;3.17;;;20.80;95.40;;;;;;10495023;28;20596;-58
2022/06/25 02:33:58;;;;;;;4.85;3.17;;;20.80;95.40;;;;;;10498942;28;20431;-57
2022/06/25 02:38:59;;;;;;;3.90;3.13;;;20.80;95.40;;;;;;10508801;28;20028;-57
2022/06/25 02:44:00;;;;;;;3.22;2.85;;;20.70;95.30;;;;;;10502028;28;20054;-56
2022/06/25 02:49:01;;;;;;;7.43;3.20;;;20.70;95.30;;;;;;10501264;28;20051;-60
2022/06/25 02:54:02;;;;;;;3.38;3.05;;;20.70;95.30;;;;;;10497499;28;20093;-59
2022/06/25 02:59:03;;;;;;;4.07;3.22;;;20.70;95.30;;;;;;10503131;28;20411;-58
2022/06/25 03:04:04;;;;;;;3.25;2.90;;;20.70;95.30;;;;;;10505310;28;20173;-57
2022/06/25 03:09:05;;;;;;;3.30;3.00;;;20.70;95.30;;;;;;10496656;28;20069;-57
2022/06/25 03:14:06;;;;;;;3.47;3.17;;;20.70;95.20;;;;;;10514510;28;20571;-57
2022/06/25 03:19:07;;;;;;;3.65;3.15;;;20.60;95.20;;;;;;10505411;28;20040;-56
2022/06/25 03:24:08;;;;;;;5.10;2.80;;;20.60;95.20;;;;;;10515920;28;20031;-58
2022/06/25 03:29:09;;;;;;;2.55;2.30;;;20.60;95.20;;;;;;10516268;28;20041;-57
2022/06/25 03:34:10;;;;;;;4.07;2.65;;;20.60;95.20;;;;;;10506667;28;20050;-57
2022/06/25 03:39:10;;;;;;;3.90;2.75;;;20.60;95.20;;;;;;10504407;28;20020;-58
2022/06/25 03:44:11;;;;;;;3.70;2.63;;;20.50;95.20;;;;;;10438595;28;20163;-57
2022/06/25 03:49:12;;;;;;;2.67;2.45;;;20.50;95.10;;;;;;10417870;28;20052;-56
2022/06/25 03:54:13;;;;;;;3.00;2.40;;;20.50;95.10;;;;;;10410519;28;20583;-57
2022/06/25 03:59:13;;;;;;;4.53;2.90;;;20.50;95.10;;;;;;10412726;28;20040;-57
2022/06/25 04:04:14;;;;;;;5.00;2.50;;;20.30;95.00;;;;;;10414831;28;20059;-57
2022/06/25 04:09:15;;;;;;;2.55;2.35;;;20.50;95.10;;;;;;10418274;28;20031;-56
2022/06/25 04:14:15;;;;;;;3.17;2.58;;;20.50;95.00;;;;;;10413783;28;20067;-56
2022/06/25 04:19:16;;;;;;;2.70;2.40;;;20.50;95.00;;;;;;10412228;28;20230;-56
2022/06/25 04:24:17;;;;;;;3.22;2.78;;;20.50;95.00;;;;;;10413908;28;20036;-56
2022/06/25 04:29:18;;;;;;;2.65;2.22;;;20.50;95.00;;;;;;10418617;28;20254;-56
2022/06/25 04:34:18;;;;;;;3.05;2.30;;;20.40;94.90;;;;;;10416978;28;20443;-56
2022/06/25 04:39:19;;;;;;;2.50;2.30;;;20.50;94.90;;;;;;10413505;28;20032;-56
2022/06/25 04:44:20;;;;;;;3.95;2.60;;;20.50;95.00;;;;;;10411499;28;20956;-57
2022/06/25 04:49:21;;;;;;;4.15;3.15;;;20.40;95.00;;;;;;10414931;28;20426;-57
2022/06/25 04:54:21;;;;;;;3.00;2.30;;;20.40;94.90;;;;;;10414824;28;20928;-57
2022/06/25 04:59:22;;;;;;;2.72;2.40;;;20.40;94.90;;;;;;10417083;28;20028;-56
2022/06/25 05:04:23;;;;;;;3.55;2.70;;;20.40;94.90;;;;;;10413627;28;20833;-56
2022/06/25 05:09:23;;;;;;;3.00;2.40;;;20.40;94.90;;;;;;10410803;28;20087;-57
2022/06/25 05:14:24;;;;;;;2.92;2.53;;;20.40;94.90;;;;;;10408767;28;20028;-59
2022/06/25 05:19:25;;;;;;;2.65;2.45;;;20.50;94.90;;;;;;10405636;28;20040;-57
2022/06/25 05:24:25;;;;;;;2.58;2.20;;;20.50;94.90;;;;;;10408603;28;20650;-57
2022/06/25 05:29:26;;;;;;;2.40;2.20;;;20.40;94.80;;;;;;10401755;28;20032;-59
2022/06/25 05:34:27;;;;;;;2.55;2.30;;;20.40;94.80;;;;;;10403673;28;20143;-56
2022/06/25 05:39:27;;;;;;;4.30;2.47;;;20.40;94.80;;;;;;10408624;28;20032;-57
2022/06/25 05:44:28;;;;;;;5.03;2.30;;;20.50;94.80;;;;;;10406116;28;20040;-57
2022/06/25 05:49:28;;;;;;;2.22;2.03;;;20.50;94.80;;;;;;10405725;28;20125;-56
2022/06/25 05:54:29;;;;;;;2.45;2.25;;;20.50;94.80;;;;;;10408544;28;20947;-57
2022/06/25 05:59:30;;;;;;;2.95;2.08;;;20.40;94.70;;;;;;10414700;28;20028;-56
2022/06/25 06:04:30;;;;;;;2.53;2.33;;;20.40;94.70;;;;;;10412457;28;20032;-56
2022/06/25 06:09:32;;;;;;;2.50;2.20;;;20.50;94.70;;;;;;10408798;28;20111;-56
2022/06/25 06:14:32;;;;;;;2.00;1.73;;;20.50;94.70;;;;;;10409868;28;20028;-58
2022/06/25 06:19:33;;;;;;;4.35;2.28;;;20.50;94.70;;;;;;10406587;28;20048;-57
2022/06/25 06:24:34;;;;;;;3.33;2.25;;;20.50;94.60;;;;;;10399748;28;20035;-56
2022/06/25 06:29:35;;;;;;;2.65;2.10;;;20.50;94.60;;;;;;10410441;28;20028;-59
2022/06/25 06:34:35;;;;;;;4.18;2.50;;;20.60;94.60;;;;;;10403351;28;21216;-58
2022/06/25 06:39:36;;;;;;;2.33;2.00;;;20.60;94.60;;;;;;10408038;28;20078;-57
2022/06/25 06:44:37;;;;;;;3.17;2.28;;;20.60;94.50;;;;;;10410659;28;20091;-57
2022/06/25 06:49:38;;;;;;;2.85;2.28;;;20.60;94.50;;;;;;10424938;28;20315;-57
2022/06/25 06:54:39;;;;;;;3.55;1.98;;;20.60;94.50;;;;;;10408607;28;20036;-57
2022/06/25 06:59:41;;;;;;;2.47;2.17;;;20.70;94.50;;;;;;10412025;28;20028;-57
2022/06/25 07:04:42;;;;;;;2.78;2.10;;;20.70;94.50;;;;;;10408417;28;20039;-58
2022/06/25 07:09:42;;;;;;;2.60;2.40;;;20.70;94.40;;;;;;10418461;28;20028;-58
2022/06/25 07:14:43;;;;;;;2.22;2.03;;;20.70;94.40;;;;;;10420243;28;20050;-57
2022/06/25 07:19:44;;;;;;;2.30;2.08;;;20.70;94.30;;;;;;10421986;28;20075;-56
2022/06/25 07:24:44;;;;;;;2.25;2.05;;;20.70;94.30;;;;;;10416998;28;20350;-58
2022/06/25 07:29:45;;;;;;;3.15;2.20;;;20.70;94.20;;;;;;10415591;28;20075;-57
2022/06/25 07:34:46;;;;;;;3.33;2.47;;;20.80;94.20;;;;;;10403188;28;20132;-59
2022/06/25 07:39:46;;;;;;;3.15;2.85;;;20.80;94.30;;;;;;10409483;28;20136;-61
2022/06/25 07:44:47;;;;;;;3.70;2.22;;;20.80;94.50;;;;;;10404951;28;20336;-60
2022/06/25 07:55:07;;;;;;;3.92;1.85;;;20.90;94.50;;;;;;10410231;28;20111;-59
2022/06/25 08:00:09;;;;;;;3.70;2.05;;;20.90;94.30;;;;;;10408425;28;20021;-60
2022/06/25 08:05:09;;;;;;;3.70;2.00;;;21.00;94.30;;;;;;10412622;28;20356;-58
2022/06/25 08:10:10;;;;;;;3.10;2.28;;;21.00;94.30;;;;;;10406091;28;20990;-58
2022/06/25 08:15:11;;;;;;;4.93;2.10;;;21.00;94.20;;;;;;10406909;28;20044;-59
2022/06/25 08:20:13;;;;;;;4.22;2.20;;;20.90;94.30;;;;;;10414292;28;20056;-59
2022/06/25 08:25:14;;;;;;;3.47;2.60;;;21.00;94.40;;;;;;10410697;28;20035;-59
2022/06/25 08:30:15;;;;;;;6.63;2.28;;;21.10;94.70;;;;;;10410085;28;20034;-58
2022/06/25 08:35:16;;;;;;;9.48;2.10;;;21.10;94.30;;;;;;10426497;28;20020;-59
2022/06/25 08:40:19;;;;;;;4.53;2.30;;;21.20;94.20;;;;;;10434945;28;20035;-59
2022/06/25 08:45:20;;;;;;;3.92;2.10;;;21.30;94.20;;;;;;10421715;28;20039;-59
2022/06/25 08:50:22;;;;;;;3.97;1.70;;;21.30;94.10;;;;;;10417137;28;20053;-59
2022/06/25 08:55:25;;;;;;;5.85;1.70;;;21.30;94.20;;;;;;10415404;28;20028;-59
2022/06/25 09:00:28;;;;;;;4.28;1.50;;;21.30;94.20;;;;;;10412068;28;20033;-61
2022/06/25 09:05:31;;;;;;;4.10;1.50;;;21.50;94.00;;;;;;10418266;28;21000;-59
2022/06/25 09:10:33;;;;;;;3.40;1.50;;;21.60;93.70;;;;;;10416139;28;20774;-60
2022/06/25 09:15:40;;;;;;;2.33;1.23;;;21.80;93.60;;;;;;10416923;28;20032;-61
2022/06/25 09:21:05;;;;;;;1.73;1.13;;;21.90;93.40;;;;;;10410409;28;20450;-60
2022/06/25 09:26:08;;;;;;;4.07;1.20;;;21.90;93.30;;;;;;10401567;28;20467;-59
2022/06/25 09:31:09;;;;;;;2.72;1.20;;;22.20;93.10;;;;;;10405467;28;20038;-58
2022/06/25 09:36:10;;;;;;;2.35;1.10;;;22.20;92.70;;;;;;10403221;28;20036;-59
2022/06/25 09:41:11;;;;;;;1.65;1.10;;;22.20;92.50;;;;;;10407072;28;20056;-62
2022/06/25 09:46:11;;;;;;;2.10;1.23;;;22.30;92.30;;;;;;10408581;28;20144;-60
2022/06/25 09:51:19;;;;;;;3.08;1.20;;;22.30;92.30;;;;;;10406061;28;20033;-60
2022/06/25 09:56:25;;;;;;;;;;;22.30;92.20;;;;;;10409813;28;20028;-59
2022/06/25 10:01:28;;;;;;;2.85;1.45;;;22.40;91.90;;;;;;10408233;28;20813;-60
2022/06/25 10:06:34;;;;;;;1.67;1.35;;;22.40;92.00;;;;;;10409856;28;21098;-60
2022/06/25 10:11:37;;;;;;;1.55;1.13;;;22.40;91.70;;;;;;10404918;28;20101;-60
2022/06/25 10:16:38;;;;;;;2.53;1.67;;;22.40;91.70;;;;;;10407372;28;20040;-61
2022/06/25 10:21:40;;;;;;;4.00;1.30;;;22.60;91.70;;;;;;10405900;28;20028;-60
2022/06/25 10:26:41;;;;;;;1.95;1.48;;;22.80;91.40;;;;;;10403527;28;20880;-59
2022/06/25 10:31:42;;;;;;;3.05;1.38;;;22.80;91.30;;;;;;10402213;28;20029;-60
2022/06/25 10:36:47;;;;;;;1.75;1.38;;;22.80;91.40;;;;;;10408351;28;20815;-60
2022/06/25 10:47:47;;;;;;;1.48;1.38;;;22.80;91.60;;;;;;10408498;28;20044;-59
2022/06/25 10:53:08;;;;;;;1.75;1.48;;;22.70;91.50;;;;;;10404590;28;20251;-59
2022/06/25 10:58:10;;;;;;;5.20;1.63;;;22.50;91.60;;;;;;10385940;28;20067;-60
2022/06/25 11:03:11;;;;;;;7.50;2.35;;;22.30;92.00;;;;;;10400184;28;20031;-58
2022/06/25 11:08:12;;;;;;;2.85;1.98;;;22.10;92.70;;;;;;10403820;28;20884;-58
2022/06/25 11:13:13;;;;;;;2.67;1.73;;;22.00;93.10;;;;;;10403128;28;20140;-58
2022/06/25 11:18:14;;;;;;;3.08;1.85;;;22.00;93.20;;;;;;10396597;28;20036;-59
2022/06/25 11:23:16;;;;;;;2.40;1.60;;;21.90;93.20;;;;;;10415942;28;20071;-57
2022/06/25 11:33:40;;;;;;;3.67;2.22;;;22.00;93.30;;;;;;10412352;28;20090;-59
2022/06/25 11:38:43;;;;;;;4.78;2.47;;;22.20;93.50;;;;;;10423439;28;20036;-61
2022/06/25 11:43:44;;;;;;;3.13;2.30;;;22.20;93.70;;;;;;10419074;28;20589;-61
2022/06/25 11:48:47;;;;;;;3.67;2.47;;;22.20;94.00;;;;;;10421530;28;20348;-59
2022/06/25 11:53:48;;;;;;;4.32;2.60;;;22.00;94.30;;;;;;10408244;28;20020;-59
2022/06/25 11:58:48;;;;;;;3.53;2.80;;;21.90;94.70;;;;;;10417125;28;20028;-59
2022/06/25 12:03:49;;;;;;;3.17;2.88;;;21.80;95.10;;;;;;10417130;28;20322;-58
2022/06/25 12:08:50;;;;;;;3.67;2.60;;;21.80;95.20;;;;;;10419397;28;20311;-59
2022/06/25 12:13:52;;;;;;;4.18;3.20;;;21.70;95.20;;;;;;10422888;28;20028;-59
2022/06/25 12:18:55;;;;;;;7.30;3.00;;;21.70;95.40;;;;;;10422273;28;20591;-62
2022/06/25 12:23:58;;;;;;;7.00;3.03;;;21.70;95.70;;;;;;10406146;28;20039;-59
2022/06/25 12:29:17;;;;;;;3.08;2.53;;;21.90;95.50;;;;;;10416002;28;20052;-61
2022/06/25 12:34:18;;;;;;;2.55;2.35;;;22.10;95.10;;;;;;10410988;28;20067;-59
2022/06/25 12:39:44;;;;;;;2.92;2.30;;;22.30;94.70;;;;;;10405292;28;20024;-61
2022/06/25 12:44:44;;;;;;;2.78;2.08;;;22.60;94.70;;;;;;10411913;28;20362;-59
2022/06/25 12:49:52;;;;;;;2.50;2.30;;;22.80;94.20;;;;;;10411600;28;20044;-59
2022/06/25 12:54:55;;;;;;;3.28;2.67;;;22.90;94.10;;;;;;10408893;28;20916;-60
2022/06/25 12:59:57;;;;;;;2.83;2.58;;;22.90;94.10;;;;;;10409489;28;20425;-60
2022/06/25 13:04:58;;;;;;;2.85;2.50;;;23.00;94.10;;;;;;10404507;28;20040;-60
2022/06/25 13:09:59;;;;;;;5.95;2.30;;;23.10;93.90;;;;;;10409869;28;20032;-59
2022/06/25 13:15:03;;;;;;;2.95;2.50;;;23.40;93.70;;;;;;10407656;28;20027;-60
2022/06/25 13:20:05;;;;;;;3.55;2.20;;;23.60;93.50;;;;;;10413199;28;20125;-59
2022/06/25 13:25:09;;;;;;;2.03;1.83;;;23.60;93.40;;;;;;10409703;28;20056;-60
2022/06/25 13:30:10;;;;;;;1.85;1.52;;;23.80;93.10;;;;;;10410568;28;20804;-59
2022/06/25 13:35:11;;;;;;;1.60;1.50;;;23.80;93.00;;;;;;10410587;28;20028;-59
2022/06/25 13:40:12;;;;;;;2.60;1.38;;;23.80;92.40;;;;;;10405432;28;20039;-60
2022/06/25 13:45:12;;;;;;;1.58;1.25;;;24.00;92.00;;;;;;10413285;28;20048;-59
2022/06/25 13:50:13;;;;;;;3.55;1.30;;;24.10;91.70;;;;;;10410911;28;20033;-59
2022/06/25 13:55:14;;;;;;;2.78;1.38;;;24.20;91.40;;;;;;10408595;28;20031;-63
2022/06/25 14:00:15;;;;;;;1.33;1.23;;;24.40;90.80;;;;;;10408459;28;20059;-60
2022/06/25 14:05:16;;;;;;;2.45;1.40;;;24.30;90.70;;;;;;10409723;28;20676;-60
2022/06/25 14:10:16;;;;;;;1.48;1.25;;;24.40;90.50;;;;;;10416281;28;20641;-59
2022/06/25 14:15:17;;;;;;;1.50;1.40;;;24.80;90.00;;;;;;10406790;28;20025;-61
2022/06/25 14:20:18;;;;;;;1.98;1.38;;;24.90;88.90;;;;;;10410742;28;20046;-61
2022/06/25 14:25:24;;;;;;;1.50;1.40;;;25.10;88.40;;;;;;10405041;28;20471;-60
2022/06/25 14:30:26;;;;;;;2.75;1.42;;;25.30;87.70;;;;;;10404674;28;20029;-58
2022/06/25 14:35:27;;;;;;;1.48;1.30;;;25.50;86.90;;;;;;10407595;28;20031;-59
2022/06/25 14:45:41;;;;;;;5.60;3.40;;;25.30;87.00;;;;;;10408154;28;20068;-59
2022/06/25 14:50:43;;;;;;;6.57;3.65;;;25.20;89.00;;;;;;10404511;28;20028;-59
2022/06/25 14:55:44;;;;;;;7.15;4.45;;;25.00;90.00;;;;;;10407674;28;20864;-59
2022/06/25 15:00:45;;;;;;;6.82;3.80;;;24.90;90.30;;;;;;10405811;28;20024;-60
2022/06/25 15:05:49;;;;;;;5.68;3.85;;;24.80;90.60;;;;;;10403473;28;20047;-60
2022/06/25 15:10:50;;;;;;;6.53;4.15;;;24.70;90.70;;;;;;10410205;28;20047;-60
2022/06/25 15:15:51;;;;;;;5.30;3.72;;;24.40;91.10;;;;;;10410870;28;20517;-60
2022/06/25 15:20:52;;;;;;;6.38;3.58;;;24.30;91.40;;;;;;10414106;28;20076;-59
2022/06/25 15:25:53;;;;;;;4.38;3.30;;;24.20;91.50;;;;;;10411866;28;20044;-59
2022/06/25 15:30:53;;;;;;;5.03;3.67;;;24.00;91.60;;;;;;10415086;28;20108;-59
2022/06/25 15:35:55;;;;;;;7.20;4.35;;;23.90;91.70;;;;;;10410153;28;20030;-60
2022/06/25 15:40:56;;;;;;;8.60;4.28;;;23.80;91.90;;;;;;10414045;28;20066;-60
2022/06/25 15:45:57;;;;;;;8.27;3.90;;;23.60;92.10;;;;;;10413093;28;20039;-59
2022/06/25 15:50:58;;;;;;;5.47;4.82;;;23.60;92.30;;;;;;10413006;28;20723;-62
2022/06/25 15:55:59;;;;;;;6.13;4.63;;;23.60;92.30;;;;;;10417142;28;20045;-60
2022/06/25 16:00:59;;;;;;;7.00;4.32;;;23.40;92.50;;;;;;10412035;28;20432;-59
2022/06/25 16:06:00;;;;;;;5.00;4.30;;;23.50;92.60;;;;;;10409363;28;20079;-59
2022/06/25 16:11:30;;;;;;;9.32;4.78;;;23.50;92.50;;;;;;10409862;28;20127;-58
2022/06/25 16:16:22;;;;;;;7.40;4.45;;;23.40;92.50;;;;;;10408337;28;20155;-58
2022/06/25 16:21:22;;;;;;;8.68;4.43;;;23.30;92.60;;;;;;10418474;28;20836;-59
2022/06/25 16:26:23;;;;;;;3.97;3.20;;;23.30;92.60;;;;;;10410375;28;20139;-59
2022/06/25 16:31:24;;;;;;;6.43;3.95;;;23.30;92.60;;;;;;10412151;28;20969;-58
2022/06/25 16:36:25;;;;;;;6.32;4.43;;;23.30;92.60;;;;;;10419231;28;20030;-58
2022/06/25 16:41:27;;;;;;;5.00;3.55;;;22.90;92.80;;;;;;10410896;28;20109;-62
2022/06/25 16:46:42;;;;;;;5.78;3.47;;;22.80;93.00;;;;;;10413785;28;20043;-60
2022/06/25 16:51:46;;;;;;;6.38;4.07;;;22.80;92.90;;;;;;10408947;28;20590;-61
2022/06/25 16:56:49;;;;;;;5.65;4.03;;;22.70;93.10;;;;;;10415460;28;20036;-61
2022/06/25 17:01:50;;;;;;;7.22;4.72;;;22.80;93.30;;;;;;10413963;28;20097;-60
2022/06/25 17:06:51;;;;;;;7.57;4.70;;;22.60;93.40;;;;;;10406470;28;20045;-59
2022/06/25 17:11:52;;;;;;;4.90;4.40;;;22.60;93.50;;;;;;10417524;28;20028;-59
2022/06/25 17:16:53;;;;;;;5.75;4.47;;;22.60;93.60;;;;;;10405575;28;20602;-60
2022/06/25 17:21:54;;;;;;;8.98;3.80;;;22.50;93.70;;;;;;10404023;28;20571;-59
2022/06/25 17:26:54;;;;;;;6.97;4.10;;;22.40;93.90;;;;;;10410330;28;20592;-60
2022/06/25 17:31:55;;;;;;;12.75;4.43;;;22.30;94.10;;;;;;10409895;28;20039;-59
2022/06/25 17:36:56;;;;;;;5.22;4.25;;;22.30;94.30;;;;;;10413319;28;20131;-59
2022/06/25 17:41:57;;;;;;;6.40;4.15;;;22.30;94.40;;;;;;10401180;28;20028;-59
2022/06/25 17:46:58;;;;;;;8.07;4.90;;;22.30;94.60;;;;;;10403258;28;20119;-59
2022/06/25 17:52:00;;;;;;;9.10;5.78;;;22.30;94.70;;;;;;10399075;28;20028;-62
2022/06/25 17:57:00;;;;;;;7.75;5.20;;;22.20;94.80;;;;;;10404928;28;20231;-61
2022/06/25 18:02:03;;;;;;;8.35;5.18;;;22.20;95.00;;;;;;10412418;28;20035;-65
2022/06/25 18:07:04;;;;;;;10.18;5.20;;;22.00;95.20;;;;;;10418566;28;20116;-61
2022/06/25 18:12:05;;;;;;;8.70;5.15;;;22.00;95.40;;;;;;10413732;28;20036;-60
2022/06/25 18:17:06;;;;;;;12.10;5.85;;;22.00;95.50;;;;;;10410636;28;20244;-60
2022/06/25 18:22:07;;;;;;;7.68;5.70;;;22.00;95.60;;;;;;10413706;28;20028;-59
2022/06/25 18:27:08;;;;;;;7.53;4.47;;;22.00;95.70;;;;;;10398379;28;20040;-59
2022/06/25 18:32:08;;;;;;;4.88;3.72;;;22.00;95.70;;;;;;10410253;28;20027;-58
2022/06/25 18:37:09;;;;;;;6.75;4.07;;;22.20;95.50;;;;;;10409779;28;20029;-59
2022/06/25 18:42:10;;;;;;;6.03;3.47;;;22.30;95.30;;;;;;10399276;28;20024;-59
2022/06/25 18:47:12;;;;;;;5.00;3.50;;;22.40;95.20;;;;;;10412458;28;20039;-61
2022/06/25 18:52:13;;;;;;;4.05;3.22;;;22.50;95.00;;;;;;10404526;28;20849;-59
2022/06/25 18:57:13;;;;;;;3.88;3.00;;;22.60;94.90;;;;;;10403525;28;20029;-59
2022/06/25 19:02:14;;;;;;;3.30;2.92;;;22.60;94.90;;;;;;10402796;28;20040;-58
2022/06/25 19:07:15;;;;;;;3.58;2.90;;;22.70;94.80;;;;;;10412688;28;20052;-60
2022/06/25 19:12:16;;;;;;;3.20;2.90;;;22.70;94.70;;;;;;10408181;28;20036;-61
2022/06/25 19:17:17;;;;;;;3.50;2.92;;;22.70;94.70;;;;;;10410575;28;20057;-59
2022/06/25 19:22:18;;;;;;;4.57;3.00;;;22.70;94.70;;;;;;10416689;28;20077;-58
2022/06/25 19:27:19;;;;;;;3.03;2.72;;;22.70;94.70;;;;;;10408812;28;20217;-60
2022/06/25 19:32:19;;;;;;;3.92;2.50;;;22.70;94.70;;;;;;10407373;28;20944;-58
2022/06/25 19:37:20;;;;;;;3.10;2.80;;;22.70;94.70;;;;;;10413779;28;21119;-60
2022/06/25 19:42:21;;;;;;;2.72;2.53;;;22.70;94.80;;;;;;10411856;28;20043;-60
2022/06/25 19:47:22;;;;;;;3.60;2.53;;;22.70;94.60;;;;;;10412105;28;20051;-61
2022/06/25 19:52:23;;;;;;;4.57;3.03;;;22.60;94.60;;;;;;10415139;28;20039;-61
2022/06/25 19:57:24;;;;;;;3.22;2.35;;;22.60;94.60;;;;;;10416148;28;21052;-60
2022/06/25 20:02:25;;;;;;;3.95;2.55;;;22.60;94.60;;;;;;10419249;28;20472;-62
2022/06/25 20:07:25;;;;;;;2.65;2.45;;;22.60;94.60;;;;;;10419579;28;20048;-66
2022/06/25 20:12:26;;;;;;;3.15;2.70;;;22.60;94.60;;;;;;10481029;28;20032;-59
2022/06/25 20:17:27;;;;;;;3.55;2.70;;;22.50;94.60;;;;;;10503814;28;20071;-59
2022/06/25 20:22:27;;;;;;;2.67;2.47;;;22.50;94.60;;;;;;10506772;28;20069;-59
2022/06/25 20:27:28;;;;;;;2.88;2.50;;;22.50;94.60;;;;;;10504099;28;20730;-60
2022/06/25 20:32:31;;;;;;;3.20;2.63;;;22.50;94.60;;;;;;10510799;28;20043;-58
2022/06/25 20:37:32;;;;;;;3.53;2.55;;;22.50;94.90;;;;;;10513861;28;20028;-60
2022/06/25 20:42:32;;;;;;;3.45;2.55;;;22.40;94.60;;;;;;10511469;28;20028;-60
2022/06/25 20:47:33;;;;;;;4.90;2.60;;;22.40;94.70;;;;;;10506531;28;21309;-58
2022/06/25 20:52:34;;;;;;;2.88;2.55;;;22.40;94.70;;;;;;10504299;28;20571;-61
2022/06/25 20:57:35;;;;;;;3.75;2.80;;;22.40;94.70;;;;;;10510663;28;20039;-59
2022/06/25 21:08:05;;;;;;;4.07;2.60;;;22.40;94.70;;;;;;10504572;28;20066;-58
2022/06/25 21:13:06;;;;;;;3.17;2.50;;;22.30;94.60;;;;;;10506127;28;20419;-58
2022/06/25 21:18:08;;;;;;;4.68;2.47;;;22.30;94.60;;;;;;10503744;28;20517;-63
2022/06/25 21:23:10;;;;;;;3.47;2.40;;;22.30;94.60;;;;;;10500642;28;20428;-57
2022/06/25 21:28:11;;;;;;;5.65;2.40;;;22.30;94.70;;;;;;10498556;28;20397;-58
2022/06/25 21:33:12;;;;;;;2.97;2.20;;;22.30;94.70;;;;;;10496136;28;20035;-63
2022/06/25 21:38:13;;;;;;;3.10;2.38;;;22.30;94.70;;;;;;10502067;28;20040;-63
2022/06/25 21:43:13;;;;;;;2.97;2.58;;;22.20;94.70;;;;;;10498779;28;20094;-62
2022/06/25 21:48:14;;;;;;;3.33;2.22;;;22.20;94.70;;;;;;10499516;28;20067;-59
2022/06/25 21:53:15;;;;;;;2.85;2.53;;;22.20;94.70;;;;;;10499786;28;20024;-58
2022/06/25 21:58:16;;;;;;;2.65;2.15;;;22.20;94.70;;;;;;10495495;28;20033;-57
2022/06/25 22:03:17;;;;;;;2.75;2.38;;;22.20;94.70;;;;;;10506030;28;20028;-57
2022/06/25 22:08:18;;;;;;;2.50;2.30;;;22.20;94.80;;;;;;10504569;28;20038;-60
2022/06/25 22:13:19;;;;;;;3.22;2.40;;;22.10;94.70;;;;;;10499436;28;20388;-63
2022/06/25 22:18:22;;;;;;;4.10;2.60;;;22.10;94.70;;;;;;10501520;28;20040;-58
2022/06/25 22:23:28;;;;;;;2.72;2.42;;;22.10;94.70;;;;;;10498748;28;20024;-58
2022/06/25 22:28:29;;;;;;;6.35;3.22;;;22.10;94.80;;;;;;10504068;28;20404;-58
2022/06/25 22:33:30;;;;;;;4.63;2.67;;;22.10;94.80;;;;;;10501704;28;20024;-58
2022/06/25 22:38:30;;;;;;;4.55;2.67;;;22.10;94.80;;;;;;10502005;28;20036;-59
2022/06/25 22:43:31;;;;;;;2.97;2.35;;;22.10;94.80;;;;;;10503825;28;20042;-59
2022/06/25 22:48:32;;;;;;;4.55;2.50;;;22.00;94.80;;;;;;10499624;28;20311;-59
2022/06/25 22:53:33;;;;;;;3.00;2.70;;;22.00;94.80;;;;;;10497866;28;20017;-63
2022/06/25 22:58:33;;;;;;;5.20;3.05;;;22.00;94.80;;;;;;10499615;28;20028;-57
2022/06/25 23:03:34;;;;;;;3.72;3.22;;;22.00;94.80;;;;;;10506628;28;20031;-58
2022/06/25 23:08:35;;;;;;;4.05;2.60;;;21.90;94.80;;;;;;10502934;28;20047;-58
2022/06/25 23:13:36;;;;;;;3.90;2.80;;;21.90;94.90;;;;;;10503807;28;20082;-61
2022/06/25 23:18:36;;;;;;;4.00;2.30;;;21.90;95.10;;;;;;10504995;28;20075;-58
2022/06/25 23:23:37;;;;;;;3.72;3.03;;;21.90;94.90;;;;;;10499805;28;20033;-63
2022/06/25 23:28:38;;;;;;;3.50;2.78;;;21.90;94.90;;;;;;10506407;28;20189;-58
2022/06/25 23:33:38;;;;;;;4.70;3.00;;;21.90;94.90;;;;;;10508298;28;20477;-62
2022/06/25 23:38:39;;;;;;;4.68;2.85;;;21.90;94.90;;;;;;10515369;28;20020;-58
2022/06/25 23:43:40;;;;;;;3.58;2.90;;;21.80;94.90;;;;;;10512331;28;20715;-58
2022/06/25 23:48:40;;;;;;;3.13;2.83;;;21.80;94.90;;;;;;10505026;28;20039;-62
2022/06/25 23:53:41;;;;;;;3.88;2.70;;;21.80;95.00;;;;;;10506352;28;20024;-62
2022/06/25 23:58:42;;;;;;;3.00;2.70;;;21.80;95.00;;;;;;10504603;28;20025;-57
